sensor_id;sensor_type;location;lat;lon;timestamp;P1;durP1;ratioP1;P2;durP2;ratioP2
49015;SDS011;34830;44.064;12.566;2023-07-22T00:00:27;25.27;;;8.45;;
49015;SDS011;34830;44.064;12.566;2023-07-22T00:02:54;21.50;;;7.88;;
49015;SDS011;34830;44.064;12.566;2023-07-22T00:05:20;23.27;;;7.88;;
49015;SDS011;34830;44.064;12.566;2023-07-22T00:07:49;20.30;;;7.50;;
49015;SDS011;34830;44.064;12.566;2023-07-22T00:10:16;25.45;;;8.75;;
49015;SDS011;34830;44.064;12.566;2023-07-22T00:12:42;18.35;;;7.32;;
49015;SDS011;34830;44.064;12.566;2023-07-22T00:15:08;24.80;;;7.05;;
49015;SDS011;34830;44.064;12.566;2023-07-22T00:17:38;24.85;;;8.40;;
49015;SDS011;34830;44.064;12.566;2023-07-22T00:20:05;31.20;;;8.05;;
49015;SDS011;34830;44.064;12.566;2023-07-22T00:22:35;27.13;;;7.90;;
49015;SDS011;34830;44.064;12.566;2023-07-22T00:25:01;21.98;;;7.05;;
49015;SDS011;34830;44.064;12.566;2023-07-22T00:27:27;27.83;;;8.60;;
49015;SDS011;34830;44.064;12.566;2023-07-22T00:29:53;22.02;;;7.25;;
49015;SDS011;34830;44.064;12.566;2023-07-22T00:32:19;21.25;;;7.65;;
49015;SDS011;34830;44.064;12.566;2023-07-22T00:34:45;22.27;;;7.38;;
49015;SDS011;34830;44.064;12.566;2023-07-22T00:37:12;16.30;;;5.90;;
49015;SDS011;34830;44.064;12.566;2023-07-22T00:39:38;19.58;;;7.70;;
49015;SDS011;34830;44.064;12.566;2023-07-22T00:42:04;22.73;;;6.03;;
49015;SDS011;34830;44.064;12.566;2023-07-22T00:44:30;19.50;;;6.68;;
49015;SDS011;34830;44.064;12.566;2023-07-22T00:46:57;21.67;;;6.32;;
49015;SDS011;34830;44.064;12.566;2023-07-22T00:49:24;15.68;;;6.65;;
49015;SDS011;34830;44.064;12.566;2023-07-22T00:51:51;19.65;;;6.63;;
49015;SDS011;34830;44.064;12.566;2023-07-22T00:54:17;16.17;;;5.78;;
49015;SDS011;34830;44.064;12.566;2023-07-22T00:56:44;14.65;;;6.10;;
49015;SDS011;34830;44.064;12.566;2023-07-22T00:59:10;13.38;;;6.00;;
49015;SDS011;34830;44.064;12.566;2023-07-22T01:01:36;25.02;;;6.32;;
49015;SDS011;34830;44.064;12.566;2023-07-22T01:04:02;15.10;;;6.32;;
49015;SDS011;34830;44.064;12.566;2023-07-22T01:06:30;16.95;;;5.72;;
49015;SDS011;34830;44.064;12.566;2023-07-22T01:08:56;16.45;;;6.38;;
49015;SDS011;34830;44.064;12.566;2023-07-22T01:11:22;15.00;;;6.60;;
49015;SDS011;34830;44.064;12.566;2023-07-22T01:13:49;81.63;;;11.73;;
49015;SDS011;34830;44.064;12.566;2023-07-22T01:16:15;23.02;;;6.65;;
49015;SDS011;34830;44.064;12.566;2023-07-22T01:18:42;20.90;;;6.13;;
49015;SDS011;34830;44.064;12.566;2023-07-22T01:21:08;36.95;;;7.65;;
49015;SDS011;34830;44.064;12.566;2023-07-22T01:23:35;21.75;;;6.10;;
49015;SDS011;34830;44.064;12.566;2023-07-22T01:26:01;18.55;;;5.00;;
49015;SDS011;34830;44.064;12.566;2023-07-22T01:28:28;18.90;;;5.45;;
49015;SDS011;34830;44.064;12.566;2023-07-22T01:30:54;12.75;;;4.40;;
49015;SDS011;34830;44.064;12.566;2023-07-22T01:33:20;17.95;;;4.80;;
49015;SDS011;34830;44.064;12.566;2023-07-22T01:35:46;19.63;;;5.00;;
49015;SDS011;34830;44.064;12.566;2023-07-22T01:38:12;14.90;;;4.43;;
49015;SDS011;34830;44.064;12.566;2023-07-22T01:40:38;15.57;;;5.28;;
49015;SDS011;34830;44.064;12.566;2023-07-22T01:43:04;16.98;;;5.47;;
49015;SDS011;34830;44.064;12.566;2023-07-22T01:45:30;11.65;;;5.30;;
49015;SDS011;34830;44.064;12.566;2023-07-22T01:47:58;14.60;;;6.03;;
49015;SDS011;34830;44.064;12.566;2023-07-22T01:50:24;15.65;;;4.50;;
49015;SDS011;34830;44.064;12.566;2023-07-22T01:52:50;13.20;;;5.43;;
49015;SDS011;34830;44.064;12.566;2023-07-22T01:55:16;16.95;;;4.53;;
49015;SDS011;34830;44.064;12.566;2023-07-22T01:57:42;21.55;;;5.50;;
49015;SDS011;34830;44.064;12.566;2023-07-22T02:00:08;14.63;;;4.65;;
49015;SDS011;34830;44.064;12.566;2023-07-22T02:02:39;21.90;;;5.57;;
49015;SDS011;34830;44.064;12.566;2023-07-22T02:05:05;15.43;;;5.38;;
49015;SDS011;34830;44.064;12.566;2023-07-22T02:07:32;18.58;;;6.45;;
49015;SDS011;34830;44.064;12.566;2023-07-22T02:09:58;14.88;;;5.68;;
49015;SDS011;34830;44.064;12.566;2023-07-22T02:12:24;15.60;;;5.72;;
49015;SDS011;34830;44.064;12.566;2023-07-22T02:14:50;18.67;;;6.05;;
49015;SDS011;34830;44.064;12.566;2023-07-22T02:17:16;12.52;;;5.40;;
49015;SDS011;34830;44.064;12.566;2023-07-22T02:19:42;13.43;;;5.15;;
49015;SDS011;34830;44.064;12.566;2023-07-22T02:22:09;15.80;;;4.97;;
49015;SDS011;34830;44.064;12.566;2023-07-22T02:24:35;19.33;;;5.68;;
49015;SDS011;34830;44.064;12.566;2023-07-22T02:27:01;12.57;;;4.90;;
49015;SDS011;34830;44.064;12.566;2023-07-22T02:29:27;13.32;;;6.28;;
49015;SDS011;34830;44.064;12.566;2023-07-22T02:31:54;13.23;;;5.43;;
49015;SDS011;34830;44.064;12.566;2023-07-22T02:34:20;21.20;;;6.65;;
49015;SDS011;34830;44.064;12.566;2023-07-22T02:36:46;18.73;;;6.68;;
49015;SDS011;34830;44.064;12.566;2023-07-22T02:39:12;19.83;;;5.15;;
49015;SDS011;34830;44.064;12.566;2023-07-22T02:41:40;18.38;;;5.75;;
49015;SDS011;34830;44.064;12.566;2023-07-22T02:44:06;16.67;;;6.47;;
49015;SDS011;34830;44.064;12.566;2023-07-22T02:46:32;15.23;;;5.95;;
49015;SDS011;34830;44.064;12.566;2023-07-22T02:48:58;15.88;;;6.47;;
49015;SDS011;34830;44.064;12.566;2023-07-22T02:51:27;14.32;;;6.07;;
49015;SDS011;34830;44.064;12.566;2023-07-22T02:53:53;21.73;;;6.68;;
49015;SDS011;34830;44.064;12.566;2023-07-22T02:56:19;22.52;;;7.28;;
49015;SDS011;34830;44.064;12.566;2023-07-22T02:58:45;25.08;;;7.43;;
49015;SDS011;34830;44.064;12.566;2023-07-22T03:01:11;25.27;;;6.95;;
49015;SDS011;34830;44.064;12.566;2023-07-22T03:03:37;18.38;;;7.15;;
49015;SDS011;34830;44.064;12.566;2023-07-22T03:06:05;14.50;;;5.72;;
49015;SDS011;34830;44.064;12.566;2023-07-22T03:08:32;19.60;;;7.57;;
49015;SDS011;34830;44.064;12.566;2023-07-22T03:10:58;19.98;;;6.70;;
49015;SDS011;34830;44.064;12.566;2023-07-22T03:13:25;21.05;;;6.82;;
49015;SDS011;34830;44.064;12.566;2023-07-22T03:15:55;15.15;;;5.70;;
49015;SDS011;34830;44.064;12.566;2023-07-22T03:18:22;20.92;;;7.55;;
49015;SDS011;34830;44.064;12.566;2023-07-22T03:20:48;17.20;;;7.38;;
49015;SDS011;34830;44.064;12.566;2023-07-22T03:23:14;15.50;;;6.68;;
49015;SDS011;34830;44.064;12.566;2023-07-22T03:25:40;30.33;;;8.05;;
49015;SDS011;34830;44.064;12.566;2023-07-22T03:28:06;18.75;;;6.80;;
49015;SDS011;34830;44.064;12.566;2023-07-22T03:30:33;15.57;;;6.47;;
49015;SDS011;34830;44.064;12.566;2023-07-22T03:33:00;16.15;;;6.07;;
49015;SDS011;34830;44.064;12.566;2023-07-22T03:35:26;19.40;;;6.00;;
49015;SDS011;34830;44.064;12.566;2023-07-22T03:37:53;12.77;;;6.55;;
49015;SDS011;34830;44.064;12.566;2023-07-22T03:40:19;16.95;;;6.40;;
49015;SDS011;34830;44.064;12.566;2023-07-22T03:42:49;14.43;;;6.15;;
49015;SDS011;34830;44.064;12.566;2023-07-22T03:45:16;16.35;;;5.50;;
49015;SDS011;34830;44.064;12.566;2023-07-22T03:47:44;15.43;;;6.15;;
49015;SDS011;34830;44.064;12.566;2023-07-22T03:50:10;16.83;;;5.57;;
49015;SDS011;34830;44.064;12.566;2023-07-22T03:52:37;20.80;;;6.60;;
49015;SDS011;34830;44.064;12.566;2023-07-22T03:55:03;12.85;;;5.75;;
49015;SDS011;34830;44.064;12.566;2023-07-22T03:57:31;21.35;;;6.88;;
49015;SDS011;34830;44.064;12.566;2023-07-22T03:59:57;18.20;;;6.03;;
49015;SDS011;34830;44.064;12.566;2023-07-22T04:02:24;14.10;;;5.80;;
49015;SDS011;34830;44.064;12.566;2023-07-22T04:04:51;12.93;;;5.55;;
49015;SDS011;34830;44.064;12.566;2023-07-22T04:07:17;18.02;;;6.03;;
49015;SDS011;34830;44.064;12.566;2023-07-22T04:09:43;17.45;;;6.45;;
49015;SDS011;34830;44.064;12.566;2023-07-22T04:12:10;13.85;;;6.13;;
49015;SDS011;34830;44.064;12.566;2023-07-22T04:14:37;14.85;;;5.90;;
49015;SDS011;34830;44.064;12.566;2023-07-22T04:17:04;21.20;;;6.20;;
49015;SDS011;34830;44.064;12.566;2023-07-22T04:19:31;19.98;;;6.40;;
49015;SDS011;34830;44.064;12.566;2023-07-22T04:21:57;17.70;;;5.38;;
49015;SDS011;34830;44.064;12.566;2023-07-22T04:24:23;16.10;;;6.90;;
49015;SDS011;34830;44.064;12.566;2023-07-22T04:26:50;13.88;;;5.70;;
49015;SDS011;34830;44.064;12.566;2023-07-22T04:29:17;13.00;;;5.93;;
49015;SDS011;34830;44.064;12.566;2023-07-22T04:31:43;15.95;;;6.00;;
49015;SDS011;34830;44.064;12.566;2023-07-22T04:34:09;23.27;;;6.90;;
49015;SDS011;34830;44.064;12.566;2023-07-22T04:36:37;13.68;;;5.25;;
49015;SDS011;34830;44.064;12.566;2023-07-22T04:39:03;18.05;;;6.93;;
49015;SDS011;34830;44.064;12.566;2023-07-22T04:41:31;20.38;;;7.63;;
49015;SDS011;34830;44.064;12.566;2023-07-22T04:43:57;27.55;;;10.80;;
49015;SDS011;34830;44.064;12.566;2023-07-22T04:46:27;21.83;;;13.00;;
49015;SDS011;34830;44.064;12.566;2023-07-22T04:48:54;39.25;;;18.33;;
49015;SDS011;34830;44.064;12.566;2023-07-22T04:51:22;30.13;;;17.98;;
49015;SDS011;34830;44.064;12.566;2023-07-22T04:53:48;29.48;;;17.55;;
49015;SDS011;34830;44.064;12.566;2023-07-22T04:56:14;28.58;;;17.30;;
49015;SDS011;34830;44.064;12.566;2023-07-22T04:58:40;22.17;;;15.85;;
49015;SDS011;34830;44.064;12.566;2023-07-22T05:01:06;25.23;;;14.85;;
49015;SDS011;34830;44.064;12.566;2023-07-22T05:03:32;32.80;;;14.48;;
49015;SDS011;34830;44.064;12.566;2023-07-22T05:05:58;25.90;;;12.70;;
49015;SDS011;34830;44.064;12.566;2023-07-22T05:08:24;24.48;;;11.25;;
49015;SDS011;34830;44.064;12.566;2023-07-22T05:10:50;15.00;;;7.20;;
49015;SDS011;34830;44.064;12.566;2023-07-22T05:13:16;15.05;;;6.45;;
49015;SDS011;34830;44.064;12.566;2023-07-22T05:15:42;13.88;;;6.80;;
49015;SDS011;34830;44.064;12.566;2023-07-22T05:18:08;16.83;;;6.45;;
49015;SDS011;34830;44.064;12.566;2023-07-22T05:20:34;16.75;;;6.35;;
49015;SDS011;34830;44.064;12.566;2023-07-22T05:23:00;15.00;;;6.68;;
49015;SDS011;34830;44.064;12.566;2023-07-22T05:25:26;17.58;;;5.28;;
49015;SDS011;34830;44.064;12.566;2023-07-22T05:27:53;15.63;;;5.40;;
49015;SDS011;34830;44.064;12.566;2023-07-22T05:30:19;14.55;;;4.85;;
49015;SDS011;34830;44.064;12.566;2023-07-22T05:32:45;12.15;;;4.97;;
49015;SDS011;34830;44.064;12.566;2023-07-22T05:35:11;16.52;;;6.63;;
49015;SDS011;34830;44.064;12.566;2023-07-22T05:37:37;14.15;;;5.22;;
49015;SDS011;34830;44.064;12.566;2023-07-22T05:40:03;15.00;;;4.65;;
49015;SDS011;34830;44.064;12.566;2023-07-22T05:42:30;14.52;;;5.00;;
49015;SDS011;34830;44.064;12.566;2023-07-22T05:44:57;11.57;;;4.50;;
49015;SDS011;34830;44.064;12.566;2023-07-22T05:47:23;14.80;;;4.30;;
49015;SDS011;34830;44.064;12.566;2023-07-22T05:49:49;13.32;;;4.85;;
49015;SDS011;34830;44.064;12.566;2023-07-22T05:52:15;12.30;;;4.95;;
49015;SDS011;34830;44.064;12.566;2023-07-22T05:54:41;15.88;;;5.10;;
49015;SDS011;34830;44.064;12.566;2023-07-22T05:57:07;12.23;;;4.22;;
49015;SDS011;34830;44.064;12.566;2023-07-22T05:59:34;12.15;;;4.57;;
49015;SDS011;34830;44.064;12.566;2023-07-22T06:02:02;13.07;;;4.07;;
49015;SDS011;34830;44.064;12.566;2023-07-22T06:04:29;12.75;;;3.85;;
49015;SDS011;34830;44.064;12.566;2023-07-22T06:06:55;12.98;;;4.35;;
49015;SDS011;34830;44.064;12.566;2023-07-22T06:09:21;11.48;;;3.78;;
49015;SDS011;34830;44.064;12.566;2023-07-22T06:11:47;10.45;;;3.55;;
49015;SDS011;34830;44.064;12.566;2023-07-22T06:14:13;10.00;;;3.72;;
49015;SDS011;34830;44.064;12.566;2023-07-22T06:16:39;12.70;;;4.00;;
49015;SDS011;34830;44.064;12.566;2023-07-22T06:19:06;9.57;;;3.35;;
49015;SDS011;34830;44.064;12.566;2023-07-22T06:21:32;10.25;;;4.20;;
49015;SDS011;34830;44.064;12.566;2023-07-22T06:23:58;10.13;;;3.95;;
49015;SDS011;34830;44.064;12.566;2023-07-22T06:26:24;10.63;;;4.75;;
49015;SDS011;34830;44.064;12.566;2023-07-22T06:28:50;12.05;;;4.28;;
49015;SDS011;34830;44.064;12.566;2023-07-22T06:31:16;9.40;;;4.22;;
49015;SDS011;34830;44.064;12.566;2023-07-22T06:33:43;8.23;;;2.95;;
49015;SDS011;34830;44.064;12.566;2023-07-22T06:36:10;13.45;;;4.13;;
49015;SDS011;34830;44.064;12.566;2023-07-22T06:38:36;8.80;;;2.80;;
49015;SDS011;34830;44.064;12.566;2023-07-22T06:41:02;6.82;;;2.90;;
49015;SDS011;34830;44.064;12.566;2023-07-22T06:43:29;7.40;;;2.50;;
49015;SDS011;34830;44.064;12.566;2023-07-22T06:45:55;9.48;;;3.13;;
49015;SDS011;34830;44.064;12.566;2023-07-22T06:48:21;13.73;;;3.10;;
49015;SDS011;34830;44.064;12.566;2023-07-22T06:50:48;7.68;;;2.78;;
49015;SDS011;34830;44.064;12.566;2023-07-22T06:53:14;7.78;;;2.90;;
49015;SDS011;34830;44.064;12.566;2023-07-22T06:55:47;12.75;;;3.67;;
49015;SDS011;34830;44.064;12.566;2023-07-22T06:58:14;8.80;;;3.42;;
49015;SDS011;34830;44.064;12.566;2023-07-22T07:00:40;13.18;;;3.75;;
49015;SDS011;34830;44.064;12.566;2023-07-22T07:03:06;7.30;;;3.40;;
49015;SDS011;34830;44.064;12.566;2023-07-22T07:05:32;15.10;;;3.25;;
49015;SDS011;34830;44.064;12.566;2023-07-22T07:08:00;7.95;;;2.90;;
49015;SDS011;34830;44.064;12.566;2023-07-22T07:10:26;10.00;;;2.58;;
49015;SDS011;34830;44.064;12.566;2023-07-22T07:12:53;8.60;;;3.05;;
49015;SDS011;34830;44.064;12.566;2023-07-22T07:15:19;8.20;;;2.72;;
49015;SDS011;34830;44.064;12.566;2023-07-22T07:17:45;12.10;;;3.35;;
49015;SDS011;34830;44.064;12.566;2023-07-22T07:20:13;6.85;;;2.53;;
49015;SDS011;34830;44.064;12.566;2023-07-22T07:22:39;8.70;;;3.55;;
49015;SDS011;34830;44.064;12.566;2023-07-22T07:25:05;8.88;;;2.67;;
49015;SDS011;34830;44.064;12.566;2023-07-22T07:27:32;6.35;;;2.25;;
49015;SDS011;34830;44.064;12.566;2023-07-22T07:29:58;10.60;;;3.17;;
49015;SDS011;34830;44.064;12.566;2023-07-22T07:32:24;9.35;;;2.97;;
49015;SDS011;34830;44.064;12.566;2023-07-22T07:34:50;11.35;;;3.28;;
49015;SDS011;34830;44.064;12.566;2023-07-22T07:37:16;6.53;;;3.13;;
49015;SDS011;34830;44.064;12.566;2023-07-22T07:39:42;7.32;;;3.10;;
49015;SDS011;34830;44.064;12.566;2023-07-22T07:42:08;7.88;;;3.25;;
49015;SDS011;34830;44.064;12.566;2023-07-22T07:44:34;6.72;;;2.63;;
49015;SDS011;34830;44.064;12.566;2023-07-22T07:47:00;8.75;;;2.95;;
49015;SDS011;34830;44.064;12.566;2023-07-22T07:49:26;8.02;;;2.83;;
49015;SDS011;34830;44.064;12.566;2023-07-22T07:51:52;8.00;;;2.85;;
49015;SDS011;34830;44.064;12.566;2023-07-22T07:54:18;7.93;;;2.67;;
49015;SDS011;34830;44.064;12.566;2023-07-22T07:56:44;10.93;;;3.63;;
49015;SDS011;34830;44.064;12.566;2023-07-22T07:59:11;11.07;;;3.53;;
49015;SDS011;34830;44.064;12.566;2023-07-22T08:01:37;9.70;;;2.92;;
49015;SDS011;34830;44.064;12.566;2023-07-22T08:04:07;9.52;;;4.05;;
49015;SDS011;34830;44.064;12.566;2023-07-22T08:06:34;13.77;;;3.13;;
49015;SDS011;34830;44.064;12.566;2023-07-22T08:09:00;9.43;;;3.13;;
49015;SDS011;34830;44.064;12.566;2023-07-22T08:11:26;6.03;;;2.63;;
49015;SDS011;34830;44.064;12.566;2023-07-22T08:13:52;6.95;;;2.95;;
49015;SDS011;34830;44.064;12.566;2023-07-22T08:16:18;6.65;;;2.80;;
49015;SDS011;34830;44.064;12.566;2023-07-22T08:18:44;9.75;;;2.92;;
49015;SDS011;34830;44.064;12.566;2023-07-22T08:21:12;7.00;;;2.90;;
49015;SDS011;34830;44.064;12.566;2023-07-22T08:23:38;11.13;;;3.10;;
49015;SDS011;34830;44.064;12.566;2023-07-22T08:26:04;7.80;;;3.05;;
49015;SDS011;34830;44.064;12.566;2023-07-22T08:28:31;7.18;;;3.20;;
49015;SDS011;34830;44.064;12.566;2023-07-22T08:30:58;7.60;;;2.55;;
49015;SDS011;34830;44.064;12.566;2023-07-22T08:33:26;7.78;;;2.25;;
49015;SDS011;34830;44.064;12.566;2023-07-22T08:35:52;5.45;;;2.70;;
49015;SDS011;34830;44.064;12.566;2023-07-22T08:38:18;7.55;;;3.13;;
49015;SDS011;34830;44.064;12.566;2023-07-22T08:40:44;9.00;;;3.22;;
49015;SDS011;34830;44.064;12.566;2023-07-22T08:43:15;5.07;;;3.00;;
49015;SDS011;34830;44.064;12.566;2023-07-22T08:45:41;6.68;;;2.88;;
49015;SDS011;34830;44.064;12.566;2023-07-22T08:48:09;8.30;;;3.13;;
49015;SDS011;34830;44.064;12.566;2023-07-22T08:53:08;9.18;;;3.13;;
49015;SDS011;34830;44.064;12.566;2023-07-22T08:55:34;8.00;;;3.10;;
49015;SDS011;34830;44.064;12.566;2023-07-22T08:58:01;8.63;;;2.92;;
49015;SDS011;34830;44.064;12.566;2023-07-22T09:00:27;6.90;;;3.30;;
49015;SDS011;34830;44.064;12.566;2023-07-22T09:02:53;10.10;;;2.83;;
49015;SDS011;34830;44.064;12.566;2023-07-22T09:05:21;8.38;;;3.13;;
49015;SDS011;34830;44.064;12.566;2023-07-22T09:07:47;10.07;;;3.33;;
49015;SDS011;34830;44.064;12.566;2023-07-22T09:10:14;8.48;;;3.22;;
49015;SDS011;34830;44.064;12.566;2023-07-22T09:12:41;9.85;;;3.30;;
49015;SDS011;34830;44.064;12.566;2023-07-22T09:15:09;10.98;;;3.30;;
49015;SDS011;34830;44.064;12.566;2023-07-22T09:17:37;9.40;;;3.00;;
49015;SDS011;34830;44.064;12.566;2023-07-22T09:20:04;11.48;;;3.45;;
49015;SDS011;34830;44.064;12.566;2023-07-22T09:22:31;12.55;;;3.92;;
49015;SDS011;34830;44.064;12.566;2023-07-22T09:27:43;9.10;;;3.63;;
49015;SDS011;34830;44.064;12.566;2023-07-22T09:30:22;9.15;;;4.07;;
49015;SDS011;34830;44.064;12.566;2023-07-22T09:32:49;9.85;;;3.75;;
49015;SDS011;34830;44.064;12.566;2023-07-22T09:35:16;12.23;;;3.92;;
49015;SDS011;34830;44.064;12.566;2023-07-22T09:37:43;11.00;;;3.65;;
49015;SDS011;34830;44.064;12.566;2023-07-22T09:40:13;11.15;;;5.20;;
49015;SDS011;34830;44.064;12.566;2023-07-22T09:42:43;14.65;;;3.90;;
49015;SDS011;34830;44.064;12.566;2023-07-22T09:45:11;13.38;;;4.47;;
49015;SDS011;34830;44.064;12.566;2023-07-22T09:47:43;12.07;;;3.83;;
49015;SDS011;34830;44.064;12.566;2023-07-22T09:50:20;11.63;;;3.75;;
49015;SDS011;34830;44.064;12.566;2023-07-22T09:52:55;12.30;;;3.97;;
49015;SDS011;34830;44.064;12.566;2023-07-22T09:55:27;9.93;;;4.53;;
49015;SDS011;34830;44.064;12.566;2023-07-22T09:57:55;8.73;;;3.80;;
49015;SDS011;34830;44.064;12.566;2023-07-22T10:00:29;15.70;;;4.40;;
49015;SDS011;34830;44.064;12.566;2023-07-22T10:02:56;13.25;;;4.35;;
49015;SDS011;34830;44.064;12.566;2023-07-22T10:05:24;14.50;;;3.88;;
49015;SDS011;34830;44.064;12.566;2023-07-22T10:07:52;12.05;;;3.70;;
49015;SDS011;34830;44.064;12.566;2023-07-22T10:10:20;14.43;;;3.90;;
49015;SDS011;34830;44.064;12.566;2023-07-22T10:12:48;11.45;;;3.63;;
49015;SDS011;34830;44.064;12.566;2023-07-22T10:15:15;10.90;;;3.40;;
49015;SDS011;34830;44.064;12.566;2023-07-22T10:17:43;6.53;;;3.00;;
49015;SDS011;34830;44.064;12.566;2023-07-22T10:20:10;7.70;;;3.67;;
49015;SDS011;34830;44.064;12.566;2023-07-22T10:22:44;8.15;;;3.83;;
49015;SDS011;34830;44.064;12.566;2023-07-22T10:25:18;11.52;;;3.78;;
49015;SDS011;34830;44.064;12.566;2023-07-22T10:27:46;8.68;;;3.90;;
49015;SDS011;34830;44.064;12.566;2023-07-22T10:30:14;11.15;;;3.72;;
49015;SDS011;34830;44.064;12.566;2023-07-22T10:32:42;11.95;;;3.40;;
49015;SDS011;34830;44.064;12.566;2023-07-22T10:35:11;10.27;;;3.25;;
49015;SDS011;34830;44.064;12.566;2023-07-22T10:37:38;11.25;;;3.67;;
49015;SDS011;34830;44.064;12.566;2023-07-22T10:45:24;13.55;;;4.45;;
49015;SDS011;34830;44.064;12.566;2023-07-22T10:48:05;10.15;;;4.00;;
49015;SDS011;34830;44.064;12.566;2023-07-22T10:50:49;9.68;;;3.47;;
49015;SDS011;34830;44.064;12.566;2023-07-22T10:56:34;15.45;;;5.15;;
49015;SDS011;34830;44.064;12.566;2023-07-22T11:12:03;11.93;;;3.88;;
49015;SDS011;34830;44.064;12.566;2023-07-22T11:16:58;11.30;;;3.70;;
49015;SDS011;34830;44.064;12.566;2023-07-22T11:19:26;10.82;;;3.47;;
49015;SDS011;34830;44.064;12.566;2023-07-22T11:21:53;12.35;;;4.13;;
49015;SDS011;34830;44.064;12.566;2023-07-22T11:24:20;11.38;;;3.60;;
49015;SDS011;34830;44.064;12.566;2023-07-22T11:26:48;9.73;;;3.38;;
49015;SDS011;34830;44.064;12.566;2023-07-22T11:29:15;11.02;;;3.28;;
49015;SDS011;34830;44.064;12.566;2023-07-22T11:31:42;7.95;;;3.38;;
49015;SDS011;34830;44.064;12.566;2023-07-22T11:34:14;6.95;;;3.20;;
49015;SDS011;34830;44.064;12.566;2023-07-22T11:36:44;7.63;;;3.40;;
49015;SDS011;34830;44.064;12.566;2023-07-22T11:39:14;9.80;;;3.28;;
49015;SDS011;34830;44.064;12.566;2023-07-22T11:41:41;9.57;;;3.17;;
49015;SDS011;34830;44.064;12.566;2023-07-22T11:44:09;9.27;;;3.63;;
49015;SDS011;34830;44.064;12.566;2023-07-22T11:46:48;8.00;;;3.30;;
49015;SDS011;34830;44.064;12.566;2023-07-22T11:49:25;8.35;;;3.30;;
49015;SDS011;34830;44.064;12.566;2023-07-22T11:52:04;8.45;;;3.50;;
49015;SDS011;34830;44.064;12.566;2023-07-22T11:54:33;9.65;;;3.78;;
49015;SDS011;34830;44.064;12.566;2023-07-22T11:57:17;12.40;;;3.22;;
49015;SDS011;34830;44.064;12.566;2023-07-22T11:59:50;7.72;;;3.95;;
49015;SDS011;34830;44.064;12.566;2023-07-22T12:02:21;14.00;;;4.07;;
49015;SDS011;34830;44.064;12.566;2023-07-22T12:07:26;10.70;;;4.13;;
49015;SDS011;34830;44.064;12.566;2023-07-22T12:09:54;13.60;;;3.97;;
49015;SDS011;34830;44.064;12.566;2023-07-22T12:12:21;10.23;;;3.33;;
49015;SDS011;34830;44.064;12.566;2023-07-22T12:15:01;10.10;;;3.67;;
49015;SDS011;34830;44.064;12.566;2023-07-22T12:20:14;11.27;;;3.08;;
49015;SDS011;34830;44.064;12.566;2023-07-22T12:22:41;11.13;;;4.25;;
49015;SDS011;34830;44.064;12.566;2023-07-22T12:25:08;9.63;;;3.03;;
49015;SDS011;34830;44.064;12.566;2023-07-22T12:27:34;12.38;;;3.53;;
49015;SDS011;34830;44.064;12.566;2023-07-22T12:30:02;8.95;;;3.60;;
49015;SDS011;34830;44.064;12.566;2023-07-22T12:32:28;8.75;;;3.28;;
49015;SDS011;34830;44.064;12.566;2023-07-22T12:34:54;9.70;;;3.00;;
49015;SDS011;34830;44.064;12.566;2023-07-22T12:37:21;8.68;;;2.95;;
49015;SDS011;34830;44.064;12.566;2023-07-22T12:39:47;11.30;;;3.78;;
49015;SDS011;34830;44.064;12.566;2023-07-22T12:42:13;7.10;;;3.47;;
49015;SDS011;34830;44.064;12.566;2023-07-22T12:44:39;11.40;;;3.30;;
49015;SDS011;34830;44.064;12.566;2023-07-22T12:47:05;9.18;;;3.38;;
49015;SDS011;34830;44.064;12.566;2023-07-22T12:49:31;6.38;;;2.90;;
49015;SDS011;34830;44.064;12.566;2023-07-22T12:51:57;9.75;;;3.28;;
49015;SDS011;34830;44.064;12.566;2023-07-22T12:54:29;8.10;;;2.78;;
49015;SDS011;34830;44.064;12.566;2023-07-22T12:56:56;11.45;;;3.83;;
49015;SDS011;34830;44.064;12.566;2023-07-22T12:59:22;8.95;;;2.92;;
49015;SDS011;34830;44.064;12.566;2023-07-22T13:01:48;9.57;;;3.50;;
49015;SDS011;34830;44.064;12.566;2023-07-22T13:04:14;9.43;;;3.78;;
49015;SDS011;34830;44.064;12.566;2023-07-22T13:06:41;8.32;;;3.20;;
49015;SDS011;34830;44.064;12.566;2023-07-22T13:09:07;17.80;;;3.28;;
49015;SDS011;34830;44.064;12.566;2023-07-22T13:11:35;7.03;;;3.17;;
49015;SDS011;34830;44.064;12.566;2023-07-22T13:14:01;7.25;;;2.75;;
49015;SDS011;34830;44.064;12.566;2023-07-22T13:16:27;8.00;;;3.42;;
49015;SDS011;34830;44.064;12.566;2023-07-22T13:18:54;7.30;;;3.03;;
49015;SDS011;34830;44.064;12.566;2023-07-22T13:21:20;11.77;;;3.25;;
49015;SDS011;34830;44.064;12.566;2023-07-22T13:23:46;10.10;;;3.50;;
49015;SDS011;34830;44.064;12.566;2023-07-22T13:26:12;7.55;;;3.85;;
49015;SDS011;34830;44.064;12.566;2023-07-22T13:28:38;10.32;;;4.63;;
49015;SDS011;34830;44.064;12.566;2023-07-22T13:31:04;7.85;;;2.80;;
49015;SDS011;34830;44.064;12.566;2023-07-22T13:33:30;8.13;;;2.70;;
49015;SDS011;34830;44.064;12.566;2023-07-22T13:35:56;9.73;;;3.17;;
49015;SDS011;34830;44.064;12.566;2023-07-22T13:38:22;9.23;;;3.42;;
49015;SDS011;34830;44.064;12.566;2023-07-22T13:40:48;9.13;;;3.70;;
49015;SDS011;34830;44.064;12.566;2023-07-22T13:43:15;10.30;;;3.03;;
49015;SDS011;34830;44.064;12.566;2023-07-22T13:45:41;9.35;;;3.05;;
49015;SDS011;34830;44.064;12.566;2023-07-22T13:48:07;10.98;;;3.95;;
49015;SDS011;34830;44.064;12.566;2023-07-22T13:50:33;6.10;;;3.22;;
49015;SDS011;34830;44.064;12.566;2023-07-22T13:52:59;9.40;;;3.30;;
49015;SDS011;34830;44.064;12.566;2023-07-22T13:55:27;12.35;;;3.17;;
49015;SDS011;34830;44.064;12.566;2023-07-22T13:57:53;9.90;;;3.50;;
49015;SDS011;34830;44.064;12.566;2023-07-22T14:00:19;8.02;;;3.10;;
49015;SDS011;34830;44.064;12.566;2023-07-22T14:02:47;8.25;;;2.90;;
49015;SDS011;34830;44.064;12.566;2023-07-22T14:05:13;10.15;;;3.10;;
49015;SDS011;34830;44.064;12.566;2023-07-22T14:07:39;13.50;;;3.70;;
49015;SDS011;34830;44.064;12.566;2023-07-22T14:10:05;7.78;;;3.13;;
49015;SDS011;34830;44.064;12.566;2023-07-22T14:12:32;9.93;;;3.20;;
49015;SDS011;34830;44.064;12.566;2023-07-22T14:14:58;9.57;;;2.95;;
49015;SDS011;34830;44.064;12.566;2023-07-22T14:17:24;8.00;;;3.20;;
49015;SDS011;34830;44.064;12.566;2023-07-22T14:19:51;10.35;;;4.00;;
49015;SDS011;34830;44.064;12.566;2023-07-22T14:22:17;7.32;;;3.22;;
49015;SDS011;34830;44.064;12.566;2023-07-22T14:24:43;8.63;;;3.10;;
49015;SDS011;34830;44.064;12.566;2023-07-22T14:27:09;8.63;;;3.05;;
49015;SDS011;34830;44.064;12.566;2023-07-22T14:29:35;7.07;;;2.75;;
49015;SDS011;34830;44.064;12.566;2023-07-22T14:32:01;8.98;;;3.78;;
49015;SDS011;34830;44.064;12.566;2023-07-22T14:34:27;10.43;;;3.00;;
49015;SDS011;34830;44.064;12.566;2023-07-22T14:36:53;10.65;;;3.38;;
49015;SDS011;34830;44.064;12.566;2023-07-22T14:39:19;9.52;;;4.28;;
49015;SDS011;34830;44.064;12.566;2023-07-22T14:41:45;11.85;;;3.75;;
49015;SDS011;34830;44.064;12.566;2023-07-22T14:44:11;27.20;;;4.78;;
49015;SDS011;34830;44.064;12.566;2023-07-22T14:46:37;59.50;;;7.88;;
49015;SDS011;34830;44.064;12.566;2023-07-22T14:49:04;118.22;;;12.35;;
49015;SDS011;34830;44.064;12.566;2023-07-22T14:51:30;30.95;;;5.53;;
49015;SDS011;34830;44.064;12.566;2023-07-22T14:53:56;16.35;;;3.80;;
49015;SDS011;34830;44.064;12.566;2023-07-22T14:56:22;96.20;;;10.52;;
49015;SDS011;34830;44.064;12.566;2023-07-22T14:58:48;46.30;;;7.63;;